Pagina principale
METAR-TAF:

METAR-TAF

Aeroporti :

Milano, Italia

Aeroporto di Milano-Linate

latitudine: 45-26N, longitudine: 009-17E, altezza: 107 m

Osservazione

Il bollettino è stato emesso 43 minuti fa, alle 12:20 UTC
Vento 3 kt da ovest, variando fra sud/sud-ovest e nord
Temperature 6°C
Umidità 87%
Pressione 1009 hPa
Visibilità: 5000 m
Nubi sparse ad un'altezza di 1500 ft
Nuvoloso ad un'altezza di 3500 ft
foschia

METAR: LIML 161220Z 26003KT 200V360 5000 BR SCT015 BKN035 06/04 Q1009 NOSIG

Ora: 14:03 (13:03 UTC)

Previsione

Il bollettino è stato emesso 2 ore e 3 minuti fa, alle 11:00 UTC
Previsione valida dal 16 alle 12 UTC al 17 alle 12 UTC
Vento 5 kt da direzioni variabili
Visibilità: 7000 m
Nubi sparse ad un'altezza di 5000 ft
Evoluzione graduale
dal 17 alle 09 UTC al 17 alle 11 UTC
Vento 15 kt da nord/nord-ovest

TAF: LIML 161100Z 1612/1712 VRB05KT 7000 SCT050 BECMG 1709/1711 33015KT

Osservazioni e previsioni meteorologiche di più di 4000 aeroporti (messaggi METAR e TAF).

Le stazioni disponibili sono rappresentate dai dischi gialli e rossi sulla carta.

Puntare il mouse per vedere il nome della stazione.

Clicca sopra per visualizzare le osservazioni e previsioni meteorologiche.

Per cambiare la mappa : fare clic sui pulsanti verdi con una croce nera per ingrandire, il pulsante verde con un trattino per diminuire, o sulla freccia verde per le mappe adiacenti.


METAR-TAF: